createdAt,value
2019-03-04T00:00:59.446Z,99330.71
2019-03-04T00:03:34.487Z,99335.56
2019-03-04T00:06:08.639Z,99335.84
2019-03-04T00:08:42.134Z,99312.44
2019-03-04T00:11:15.618Z,99316.20
2019-03-04T00:13:49.323Z,99316.75
2019-03-04T00:16:22.833Z,99318.62
2019-03-04T00:18:57.205Z,99312.17
2019-03-04T00:21:39.482Z,99311.10
2019-03-04T00:24:24.082Z,99317.27
2019-03-04T00:26:57.451Z,99327.51
2019-03-04T00:29:30.868Z,99312.17
2019-03-04T00:32:04.350Z,99280.70
2019-03-04T00:34:37.804Z,99286.35
2019-03-04T00:37:20.122Z,99276.94
2019-03-04T00:39:53.516Z,99280.97
2019-03-04T00:42:28.265Z,99305.99
2019-03-04T00:45:01.983Z,99312.96
2019-03-04T00:47:36.260Z,99310.82
2019-03-04T00:50:18.985Z,99312.44
2019-03-04T00:52:53.085Z,99295.48
2019-03-04T00:55:34.956Z,99287.95
2019-03-04T00:58:08.094Z,99294.13
2019-03-04T01:00:41.749Z,99309.20
2019-03-04T01:03:15.458Z,99305.71
2019-03-04T01:05:49.020Z,99292.25
2019-03-04T01:08:22.877Z,99270.18
2019-03-04T01:10:56.694Z,99272.61
2019-03-04T01:13:30.682Z,99254.60
2019-03-04T01:16:03.902Z,99258.06
2019-03-04T01:18:37.682Z,99258.06
2019-03-04T01:21:11.274Z,99251.61
2019-03-04T01:23:45.129Z,99239.78
2019-03-04T01:26:27.545Z,99230.08
2019-03-04T01:29:00.720Z,99230.60
2019-03-04T01:31:34.118Z,99241.13
2019-03-04T01:34:07.224Z,99233.30
2019-03-04T01:36:41.892Z,99216.34
2019-03-04T01:39:15.639Z,99205.30
2019-03-04T01:41:51.283Z,99177.63
2019-03-04T01:44:34.851Z,99172.77
2019-03-04T01:47:08.420Z,99167.67
2019-03-04T01:49:42.330Z,99165.53
2019-03-04T01:52:19.086Z,99160.15
2019-03-04T01:54:53.040Z,99159.30
2019-03-04T01:57:26.257Z,99142.91
2019-03-04T01:59:59.338Z,99129.70
2019-03-04T02:02:32.897Z,99130.52
2019-03-04T02:05:17.822Z,99116.18
2019-03-04T02:08:01.189Z,99112.70
2019-03-04T02:10:35.057Z,99106.04
2019-03-04T02:13:10.955Z,99118.88
2019-03-04T02:15:44.435Z,99122.41
2019-03-04T02:18:18.358Z,99107.05
2019-03-04T02:21:00.796Z,99089.49
2019-03-04T02:23:34.264Z,99106.20
2019-03-04T02:26:11.191Z,99102.41
2019-03-04T02:28:45.259Z,99080.04
2019-03-04T02:31:19.364Z,99084.34
2019-03-04T02:33:52.714Z,99063.91
2019-03-04T02:36:34.830Z,99050.94
2019-03-04T02:39:09.046Z,99050.70
2019-03-04T02:41:43.165Z,99035.90
2019-03-04T02:44:17.140Z,99024.86
2019-03-04T02:46:51.224Z,99034.55
2019-03-04T02:49:33.822Z,99028.86
2019-03-04T02:52:07.205Z,99028.63
2019-03-04T02:54:40.340Z,99020.83
2019-03-04T02:57:13.761Z,99008.14
2019-03-04T02:59:47.914Z,99006.27
2019-03-04T03:02:22.129Z,98996.34
2019-03-04T03:05:04.605Z,98987.16
2019-03-04T03:07:38.135Z,98983.12
2019-03-04T03:10:12.912Z,98967.48
2019-03-04T03:12:46.122Z,98955.66
2019-03-04T03:15:20.551Z,98948.42
2019-03-04T03:17:53.913Z,98940.44
2019-03-04T03:20:27.570Z,98935.61
2019-03-04T03:23:01.046Z,98936.47
2019-03-04T03:25:34.594Z,98931.64
2019-03-04T03:28:07.968Z,98935.65
2019-03-04T03:30:42.135Z,98942.91
2019-03-04T03:33:16.000Z,98932.66
2019-03-04T03:35:58.726Z,98923.96
2019-03-04T03:38:31.886Z,98916.22
2019-03-04T03:41:09.761Z,98911.11
2019-03-04T03:43:43.348Z,98899.00
2019-03-04T03:46:16.763Z,98904.64
2019-03-04T03:48:59.368Z,98907.30
2019-03-04T03:51:41.933Z,98905.89
2019-03-04T03:54:15.092Z,98905.39
2019-03-04T03:56:48.233Z,98892.67
2019-03-04T03:59:30.748Z,98891.27
2019-03-04T04:02:13.600Z,98868.92
2019-03-04T04:04:56.740Z,98851.42
2019-03-04T04:07:30.706Z,98849.29
2019-03-04T04:10:04.037Z,98826.87
2019-03-04T04:12:38.548Z,98824.22
2019-03-04T04:15:12.055Z,98812.13
2019-03-04T04:17:45.270Z,98812.19
2019-03-04T04:20:18.844Z,98804.61
2019-03-04T04:22:52.472Z,98809.44
2019-03-04T04:25:26.044Z,98790.83
2019-03-04T04:27:59.885Z,98767.92
2019-03-04T04:30:33.764Z,98770.61
2019-03-04T04:33:07.432Z,98768.48
2019-03-04T04:35:41.337Z,98776.32
2019-03-04T04:38:35.479Z,98765.29
2019-03-04T04:41:09.004Z,98758.09
2019-03-04T04:43:42.687Z,98755.17
2019-03-04T04:46:16.254Z,98754.38
2019-03-04T04:49:00.335Z,98747.27
2019-03-04T04:51:33.802Z,98737.88
2019-03-04T04:54:07.315Z,98736.20
2019-03-04T04:56:40.795Z,98727.84
2019-03-04T04:59:14.700Z,98728.03
2019-03-04T05:01:48.501Z,98714.57
2019-03-04T05:04:21.731Z,98692.22
2019-03-04T05:06:55.189Z,98693.11
2019-03-04T05:09:28.569Z,98688.31
2019-03-04T05:12:02.123Z,98681.84
2019-03-04T05:14:35.856Z,98661.40
2019-03-04T05:17:09.242Z,98659.03
2019-03-04T05:19:52.176Z,98633.14
2019-03-04T05:22:25.639Z,98633.47
2019-03-04T05:25:07.811Z,98618.78
2019-03-04T05:27:41.401Z,98603.01
2019-03-04T05:30:16.903Z,98590.19
2019-03-04T05:32:59.659Z,98576.17
2019-03-04T05:35:33.212Z,98564.48
2019-03-04T05:38:06.378Z,98551.77
2019-03-04T05:40:39.782Z,98554.46
2019-03-04T05:43:13.250Z,98535.09
2019-03-04T05:45:46.391Z,98528.67
2019-03-04T05:48:29.065Z,98534.12
2019-03-04T05:51:02.696Z,98530.16
2019-03-04T05:53:35.859Z,98523.69
2019-03-04T05:56:09.571Z,98511.23
2019-03-04T05:58:42.971Z,98513.70
2019-03-04T06:01:25.024Z,98510.71
2019-03-04T06:04:00.776Z,98513.63
2019-03-04T06:06:51.431Z,98507.30
2019-03-04T06:09:25.853Z,98504.42
2019-03-04T06:11:58.973Z,98498.86
2019-03-04T06:14:43.065Z,98488.05
2019-03-04T06:17:27.521Z,98481.84
2019-03-04T06:20:00.740Z,98477.90
2019-03-04T06:22:35.662Z,98478.72
2019-03-04T06:25:12.248Z,98469.25
2019-03-04T06:27:47.666Z,98467.09
2019-03-04T06:30:23.718Z,98456.84
2019-03-04T06:33:08.452Z,98441.03
2019-03-04T06:35:41.617Z,98435.47
2019-03-04T06:38:15.415Z,98422.50
2019-03-04T06:40:49.501Z,98426.14
2019-03-04T06:43:22.908Z,98416.37
2019-03-04T06:45:56.507Z,98424.70
2019-03-04T06:48:30.621Z,98422.75
2019-03-04T06:51:04.815Z,98413.89
2019-03-04T06:54:04.402Z,98417.07
2019-03-04T06:56:58.843Z,98397.18
2019-03-04T07:00:19.132Z,98392.05
2019-03-04T07:02:54.655Z,98386.11
2019-03-04T07:05:53.567Z,98375.98
2019-03-04T07:09:16.990Z,98371.89
2019-03-04T07:11:54.061Z,98382.19
2019-03-04T07:14:27.616Z,98353.30
2019-03-04T07:17:10.359Z,98341.39
2019-03-04T07:19:43.784Z,98328.23
2019-03-04T07:22:17.599Z,98340.60
2019-03-04T07:24:54.710Z,98325.22
2019-03-04T07:27:29.018Z,98323.77
2019-03-04T07:30:02.484Z,98322.90
2019-03-04T07:32:48.393Z,98328.71
2019-03-04T07:35:22.301Z,98324.45
2019-03-04T07:38:36.699Z,98304.55
2019-03-04T07:41:10.259Z,98294.91
2019-03-04T07:43:43.380Z,98281.33
2019-03-04T07:46:16.467Z,98261.62
2019-03-04T07:48:58.652Z,98251.25
2019-03-04T07:51:31.866Z,98252.97
2019-03-04T07:54:06.072Z,98253.09
2019-03-04T07:56:39.308Z,98262.24
2019-03-04T07:59:12.442Z,98269.09
2019-03-04T08:02:00.774Z,98266.74
2019-03-04T08:04:33.948Z,98306.48
2019-03-04T08:07:41.682Z,98325.63
2019-03-04T08:10:50.505Z,98337.78
2019-03-04T08:13:30.345Z,98330.93
2019-03-04T08:16:03.162Z,98298.77
2019-03-04T08:18:36.693Z,98303.67
2019-03-04T08:21:10.667Z,98322.80
2019-03-04T08:23:43.953Z,98334.66
2019-03-04T08:26:17.456Z,98326.91
2019-03-04T08:28:50.983Z,98323.41
2019-03-04T08:31:24.320Z,98331.98
2019-03-04T08:33:58.127Z,98334.88
2019-03-04T08:36:31.783Z,98337.20
2019-03-04T08:39:08.214Z,98336.33
2019-03-04T08:41:42.338Z,98349.52
2019-03-04T08:44:15.588Z,98458.45
2019-03-04T08:46:48.668Z,98487.22
2019-03-04T08:49:23.302Z,98464.96
2019-03-04T08:51:56.680Z,98471.19
2019-03-04T08:54:29.888Z,98466.15
2019-03-04T08:57:04.296Z,98469.66
2019-03-04T08:59:37.876Z,98485.42
2019-03-04T09:02:11.413Z,98484.86
2019-03-04T09:04:43.407Z,98470.70
2019-03-04T09:07:17.464Z,98458.96
2019-03-04T09:10:00.351Z,98426.07
2019-03-04T09:12:35.972Z,98432.75
2019-03-04T09:15:19.834Z,98440.47
2019-03-04T09:18:02.082Z,98450.88
2019-03-04T09:20:35.494Z,98439.94
2019-03-04T09:23:09.014Z,98443.12
2019-03-04T09:25:51.369Z,98451.15
2019-03-04T09:28:24.968Z,98429.48
2019-03-04T09:30:56.759Z,98416.33
2019-03-04T09:33:31.318Z,98404.22
2019-03-04T09:36:04.420Z,98425.00
2019-03-04T09:38:47.207Z,98419.33
2019-03-04T09:41:29.357Z,98425.78
2019-03-04T09:44:03.001Z,98405.73
2019-03-04T09:46:36.100Z,98392.06
2019-03-04T09:49:09.234Z,98387.75
2019-03-04T09:51:51.792Z,98374.53
2019-03-04T09:54:25.653Z,98370.27
2019-03-04T09:57:08.210Z,98356.31
2019-03-04T09:59:41.495Z,98372.95
2019-03-04T10:02:25.672Z,98352.61
2019-03-04T10:05:54.783Z,98361.44
2019-03-04T10:08:56.568Z,98346.30
2019-03-04T10:12:23.361Z,98355.29
2019-03-04T10:15:44.809Z,98361.48
2019-03-04T10:18:58.545Z,98361.73
2019-03-04T10:21:53.249Z,98349.35
2019-03-04T10:25:11.108Z,98363.59
2019-03-04T10:28:50.901Z,98352.98
2019-03-04T10:32:10.248Z,98345.17
2019-03-04T10:35:06.114Z,98333.09
2019-03-04T10:38:22.805Z,98340.30
2019-03-04T10:41:13.030Z,98336.86
2019-03-04T10:44:21.512Z,98334.41
2019-03-04T10:47:06.126Z,98324.14
2019-03-04T10:49:39.714Z,98322.56
2019-03-04T10:52:12.826Z,98346.63
2019-03-04T10:54:46.295Z,98334.49
2019-03-04T10:57:28.158Z,98326.16
2019-03-04T11:00:16.830Z,98327.48
2019-03-04T11:02:50.442Z,98332.11
2019-03-04T11:05:23.570Z,98327.22
2019-03-04T11:08:08.168Z,98297.59
2019-03-04T11:10:41.289Z,98300.52
2019-03-04T11:13:14.902Z,98303.27
2019-03-04T11:15:48.091Z,98300.36
2019-03-04T11:18:30.253Z,98308.34
2019-03-04T11:21:03.372Z,98307.34
2019-03-04T11:23:37.190Z,98316.84
2019-03-04T11:26:10.310Z,98331.87
2019-03-04T11:28:43.902Z,98336.36
2019-03-04T11:31:17.390Z,98351.41
2019-03-04T11:33:50.505Z,98325.95
2019-03-04T11:36:23.976Z,98335.05
2019-03-04T11:39:05.533Z,98368.23
2019-03-04T11:41:41.428Z,98362.14
2019-03-04T11:44:14.963Z,98360.42
2019-03-04T11:46:57.091Z,98363.25
2019-03-04T11:49:30.232Z,98367.10
2019-03-04T11:52:02.957Z,98370.63
2019-03-04T11:54:45.170Z,98380.36
2019-03-04T11:57:18.664Z,98407.48
2019-03-04T12:00:03.045Z,98425.13
2019-03-04T12:02:39.207Z,98429.60
2019-03-04T12:05:11.881Z,98428.30
2019-03-04T12:07:45.088Z,98431.81
2019-03-04T12:10:28.151Z,98429.69
2019-03-04T12:13:01.388Z,98426.48
2019-03-04T12:15:34.554Z,98440.39
2019-03-04T12:18:07.913Z,98439.80
2019-03-04T12:20:52.511Z,98437.85
2019-03-04T12:23:25.732Z,98442.14
2019-03-04T12:25:58.915Z,98445.03
2019-03-04T12:28:40.956Z,98435.66
2019-03-04T12:31:14.164Z,98441.66
2019-03-04T12:33:47.249Z,98431.06
2019-03-04T12:36:29.675Z,98419.59
2019-03-04T12:39:02.817Z,98431.97
2019-03-04T12:41:37.808Z,98451.08
2019-03-04T12:44:11.056Z,98458.09
2019-03-04T12:46:53.564Z,98456.48
2019-03-04T12:49:26.752Z,98468.52
2019-03-04T12:52:01.399Z,98472.04
2019-03-04T12:54:34.884Z,98454.63
2019-03-04T12:57:17.199Z,98463.39
2019-03-04T12:59:50.604Z,98479.47
2019-03-04T13:02:25.219Z,98470.30
2019-03-04T13:04:59.076Z,98471.31
2019-03-04T13:07:32.201Z,98466.50
2019-03-04T13:10:14.246Z,98470.95
2019-03-04T13:12:47.380Z,98474.52
2019-03-04T13:15:22.329Z,98474.77
2019-03-04T13:17:56.028Z,98494.63
2019-03-04T13:20:29.588Z,98487.98
2019-03-04T13:23:02.911Z,98490.78
2019-03-04T13:25:45.239Z,98490.95
2019-03-04T13:28:18.760Z,98491.27
2019-03-04T13:30:51.934Z,98501.75
2019-03-04T13:33:25.395Z,98510.64
2019-03-04T13:35:58.902Z,98496.72
2019-03-04T13:38:32.187Z,98516.75
2019-03-04T13:41:14.633Z,98520.22
2019-03-04T13:43:47.758Z,98509.02
2019-03-04T13:46:20.877Z,98531.00
2019-03-04T13:48:55.739Z,98530.47
2019-03-04T13:51:38.120Z,98551.59
2019-03-04T13:54:11.237Z,98549.77
2019-03-04T13:56:44.380Z,98551.11
2019-03-04T13:59:29.168Z,98555.39
2019-03-04T14:02:02.318Z,98552.95
2019-03-04T14:04:46.012Z,98556.42
2019-03-04T14:07:19.505Z,98558.04
2019-03-04T14:09:52.616Z,98567.13
2019-03-04T14:12:25.706Z,98573.01
2019-03-04T14:15:10.539Z,98573.30
2019-03-04T14:17:46.024Z,98608.13
2019-03-04T14:20:19.237Z,98612.42
2019-03-04T14:22:57.611Z,98618.58
2019-03-04T14:25:28.500Z,98616.45
2019-03-04T14:28:01.873Z,98620.98
2019-03-04T14:30:45.769Z,98622.33
2019-03-04T14:33:29.312Z,98631.17
2019-03-04T14:36:03.166Z,98624.47
2019-03-04T14:38:37.401Z,98643.44
2019-03-04T15:03:58.018Z,98664.61
2019-03-04T15:06:32.015Z,98658.98
2019-03-04T15:09:14.150Z,98653.63
2019-03-04T15:22:34.967Z,98698.34
2019-03-04T15:25:07.110Z,98710.38
2019-03-04T15:27:41.075Z,98706.09
2019-03-04T15:30:59.109Z,98722.70
2019-03-04T15:33:35.228Z,98732.59
2019-03-04T15:48:07.869Z,98737.63
2019-03-04T15:50:41.461Z,98770.27
2019-03-04T15:53:17.417Z,98757.67
2019-03-04T15:55:54.884Z,98763.02
2019-03-04T15:58:29.966Z,98767.59
2019-03-04T16:01:30.993Z,98764.91
2019-03-04T16:04:08.365Z,98767.59
2019-03-04T16:06:50.764Z,98775.35
2019-03-04T16:09:29.819Z,98757.95
2019-03-04T16:12:03.771Z,98779.31
2019-03-04T16:14:38.600Z,98798.27
2019-03-04T16:17:17.916Z,98779.82
2019-03-04T16:19:50.544Z,98787.27
2019-03-04T16:22:24.741Z,98797.69
2019-03-04T16:25:07.537Z,98796.61
2019-03-04T16:27:54.701Z,98809.41
2019-03-04T16:34:26.098Z,98819.97
2019-03-04T16:47:32.851Z,98850.51
2019-03-04T16:50:08.325Z,98859.80
2019-03-04T16:52:42.881Z,98872.61
2019-03-04T16:55:16.072Z,98862.72
2019-03-04T16:57:50.096Z,98859.27
2019-03-04T17:00:23.599Z,98874.55
2019-03-04T17:02:57.270Z,98877.75
2019-03-04T17:05:30.751Z,98879.67
2019-03-04T17:08:04.553Z,98887.47
2019-03-04T17:10:38.088Z,98912.08
2019-03-04T17:13:11.734Z,98901.95
2019-03-04T17:15:45.397Z,98917.73
2019-03-04T17:18:19.083Z,98917.91
2019-03-04T17:20:52.782Z,98929.38
2019-03-04T17:23:26.341Z,98930.12
2019-03-04T17:26:00.292Z,98929.36
2019-03-04T17:28:33.686Z,98937.95
2019-03-04T17:31:17.023Z,98930.07
2019-03-04T17:33:59.836Z,98942.14
2019-03-04T17:36:33.462Z,98945.09
2019-03-04T17:39:09.057Z,98943.28
2019-03-04T17:41:41.889Z,98943.08
2019-03-04T17:44:21.849Z,98980.55
2019-03-04T17:46:55.104Z,98960.28
2019-03-04T17:49:28.667Z,98983.58
2019-03-04T17:52:02.462Z,98984.94
2019-03-04T17:54:35.657Z,98982.28
2019-03-04T17:57:10.139Z,98999.38
2019-03-04T17:59:43.423Z,98997.27
2019-03-04T18:02:17.216Z,98997.07
2019-03-04T18:04:51.539Z,99004.80
2019-03-04T18:07:33.906Z,99010.74
2019-03-04T18:10:09.399Z,99014.44
2019-03-04T18:12:53.230Z,99008.84
2019-03-04T18:15:27.094Z,99015.80
2019-03-04T18:18:00.993Z,99036.93
2019-03-04T18:20:43.524Z,99035.13
2019-03-04T18:23:18.115Z,99027.83
2019-03-04T18:25:59.113Z,99043.36
2019-03-04T18:29:04.980Z,99031.90
2019-03-04T18:32:27.770Z,99053.52
2019-03-04T18:35:23.572Z,99060.75
2019-03-04T18:38:53.368Z,99056.20
2019-03-04T18:42:03.567Z,99077.31
2019-03-04T18:45:13.935Z,99094.14
2019-03-04T18:48:24.705Z,99094.47
2019-03-04T18:51:07.154Z,99102.77
2019-03-04T18:53:41.373Z,99098.15
2019-03-04T18:56:30.186Z,99107.02
2019-03-04T18:59:03.756Z,99108.29
2019-03-04T19:01:46.809Z,99107.80
2019-03-04T19:04:20.543Z,99131.31
2019-03-04T19:06:54.705Z,99126.75
2019-03-04T19:09:28.541Z,99126.80
2019-03-04T19:12:02.737Z,99132.97
2019-03-04T19:14:35.978Z,99140.74
2019-03-04T19:17:20.110Z,99133.02
2019-03-04T19:20:01.974Z,99140.81
2019-03-04T19:22:35.859Z,99154.37
2019-03-04T19:25:09.223Z,99160.58
2019-03-04T19:27:43.007Z,99150.92
2019-03-04T19:30:16.351Z,99154.37
2019-03-04T19:32:49.575Z,99154.94
2019-03-04T19:35:23.153Z,99158.69
2019-03-04T19:37:56.814Z,99161.67
2019-03-04T19:40:30.407Z,99173.20
2019-03-04T19:43:04.466Z,99164.88
2019-03-04T19:45:38.195Z,99153.08
2019-03-04T19:48:12.191Z,99170.99
2019-03-04T19:50:54.880Z,99174.23
2019-03-04T19:53:28.471Z,99188.07
2019-03-04T19:56:02.310Z,99183.52
2019-03-04T19:58:50.698Z,99189.17
2019-03-04T20:01:24.709Z,99184.31
2019-03-04T20:04:06.840Z,99190.77
2019-03-04T20:06:40.103Z,99198.77
2019-03-04T20:09:13.607Z,99195.02
2019-03-04T20:11:47.807Z,99195.59
2019-03-04T20:14:22.814Z,99200.91
2019-03-04T20:16:57.457Z,99207.36
2019-03-04T20:19:30.639Z,99210.55
2019-03-04T20:22:14.306Z,99199.91
2019-03-04T20:25:01.223Z,99212.48
2019-03-04T20:27:37.679Z,99209.75
2019-03-04T20:30:11.300Z,99207.59
2019-03-04T20:32:46.422Z,99223.87
2019-03-04T20:35:21.321Z,99227.62
2019-03-04T20:37:56.011Z,99229.77
2019-03-04T20:40:38.289Z,99228.48
2019-03-04T20:43:11.736Z,99231.07
2019-03-04T20:45:45.136Z,99217.38
2019-03-04T20:48:18.354Z,99230.50
2019-03-04T20:50:53.676Z,99234.45
2019-03-04T20:53:26.877Z,99238.44
2019-03-04T20:56:09.620Z,99242.92
2019-03-04T20:58:42.698Z,99248.15
2019-03-04T21:01:16.334Z,99257.44
2019-03-04T21:03:51.303Z,99253.44
2019-03-04T21:06:26.901Z,99254.16
2019-03-04T21:09:00.269Z,99262.33
2019-03-04T21:11:42.873Z,99265.77
2019-03-04T21:14:16.712Z,99266.95
2019-03-04T21:16:49.955Z,99280.24
2019-03-04T21:19:23.656Z,99275.95
2019-03-04T21:21:57.701Z,99284.17
2019-03-04T21:24:31.584Z,99277.20
2019-03-04T21:27:14.699Z,99284.42
2019-03-04T21:30:27.157Z,99291.28
2019-03-04T21:33:30.095Z,99291.48
2019-03-04T21:36:24.984Z,99300.76
2019-03-04T21:39:08.919Z,99311.15
2019-03-04T21:41:48.903Z,99311.36
2019-03-04T21:45:07.371Z,99317.83
2019-03-04T21:47:44.858Z,99318.88
2019-03-04T21:50:21.773Z,99315.33
2019-03-04T21:53:05.397Z,99326.80
2019-03-04T21:56:09.320Z,99334.27
2019-03-04T21:58:44.699Z,99329.14
2019-03-04T22:01:28.968Z,99335.52
2019-03-04T22:04:06.364Z,99328.30
2019-03-04T22:06:40.019Z,99331.71
2019-03-04T22:09:17.147Z,99340.81
2019-03-04T22:12:01.455Z,99334.18
2019-03-04T22:14:36.039Z,99342.61
2019-03-04T22:17:18.410Z,99342.94
2019-03-04T22:20:05.611Z,99356.05
2019-03-04T22:22:39.464Z,99350.11
2019-03-04T22:25:14.283Z,99349.62
2019-03-04T22:27:48.348Z,99352.58
2019-03-04T22:30:21.841Z,99355.45
2019-03-04T22:32:56.134Z,99354.12
2019-03-04T22:35:30.630Z,99358.67
2019-03-04T22:38:09.982Z,99360.06
2019-03-04T22:40:45.705Z,99361.09
2019-03-04T22:43:18.850Z,99357.92
2019-03-04T22:45:52.171Z,99358.26
2019-03-04T22:48:24.095Z,99361.19
2019-03-04T22:51:12.420Z,99362.02
2019-03-04T22:53:45.932Z,99374.08
2019-03-04T22:56:19.678Z,99367.65
2019-03-04T22:58:52.891Z,99371.88
2019-03-04T23:01:54.045Z,99383.09
2019-03-04T23:04:59.694Z,99386.80
2019-03-04T23:07:55.887Z,99386.77
2019-03-04T23:10:46.984Z,99391.48
2019-03-04T23:14:00.762Z,99379.93
2019-03-04T23:16:34.123Z,99387.89
2019-03-04T23:19:07.529Z,99383.94
2019-03-04T23:21:49.443Z,99382.02
2019-03-04T23:24:22.858Z,99386.23
2019-03-04T23:26:55.556Z,99385.94
2019-03-04T23:29:37.884Z,99380.44
2019-03-04T23:32:11.283Z,99384.78
2019-03-04T23:34:44.760Z,99383.73
2019-03-04T23:37:18.228Z,99390.67
2019-03-04T23:39:51.484Z,99389.59
2019-03-04T23:42:34.383Z,99378.39
2019-03-04T23:45:20.142Z,99377.61
2019-03-04T23:48:06.706Z,99359.77
2019-03-04T23:50:40.986Z,99375.52
2019-03-04T23:53:14.566Z,99370.46
2019-03-04T23:55:47.864Z,99368.55
2019-03-04T23:58:36.061Z,99359.52
